createdAt,value
2023-01-13T00:01:26.364Z,102314.16
2023-01-13T00:03:55.092Z,102311.53
2023-01-13T00:06:26.848Z,102311.00
2023-01-13T00:08:54.957Z,102313.16
2023-01-13T00:11:22.622Z,102299.97
2023-01-13T00:13:53.771Z,102294.25
2023-01-13T00:16:24.266Z,102289.13
2023-01-13T00:18:54.837Z,102282.19
2023-01-13T00:21:23.643Z,102275.22
2023-01-13T00:23:53.091Z,102275.91
2023-01-13T00:26:22.419Z,102276.78
2023-01-13T00:28:50.264Z,102274.84
2023-01-13T00:31:22.088Z,102273.13
2023-01-13T00:33:56.386Z,102272.13
2023-01-13T00:36:32.127Z,102273.13
2023-01-13T00:39:04.101Z,102269.69
2023-01-13T00:41:55.473Z,102260.03
2023-01-13T00:44:26.735Z,102262.56
2023-01-13T00:46:56.936Z,102256.72
2023-01-13T00:49:27.210Z,102262.06
2023-01-13T00:51:59.481Z,102258.47
2023-01-13T00:54:26.874Z,102255.94
2023-01-13T00:56:54.940Z,102254.09
2023-01-13T01:02:20.998Z,102243.66
2023-01-13T01:04:48.092Z,102242.78
2023-01-13T01:07:15.258Z,102245.50
2023-01-13T01:09:44.317Z,102250.03
2023-01-13T01:12:11.820Z,102244.63
2023-01-13T01:14:39.169Z,102247.22
2023-01-13T01:17:06.412Z,102245.84
2023-01-13T01:19:33.554Z,102240.47
2023-01-13T01:22:03.103Z,102233.47
2023-01-13T01:24:30.345Z,102242.63
2023-01-13T01:26:57.460Z,102238.75
2023-01-13T01:29:27.171Z,102237.09
2023-01-13T01:31:54.519Z,102238.91
2023-01-13T01:34:21.541Z,102245.22
2023-01-13T01:36:49.534Z,102246.75
2023-01-13T01:39:16.920Z,102251.94
2023-01-13T01:42:03.936Z,102254.81
2023-01-13T01:44:43.062Z,102263.59
2023-01-13T01:47:12.472Z,102260.91
2023-01-13T01:49:39.827Z,102265.03
2023-01-13T01:52:08.492Z,102259.28
2023-01-13T01:54:48.166Z,102257.16
2023-01-13T01:57:21.195Z,102270.19
2023-01-13T01:59:48.790Z,102256.03
2023-01-13T02:02:16.166Z,102265.81
2023-01-13T02:04:51.176Z,102263.03
2023-01-13T02:07:21.079Z,102268.19
2023-01-13T02:09:48.543Z,102261.06
2023-01-13T02:12:32.917Z,102261.25
2023-01-13T02:15:05.693Z,102256.56
2023-01-13T02:17:58.965Z,102256.28
2023-01-13T02:20:45.157Z,102275.31
2023-01-13T02:23:43.028Z,102276.19
2023-01-13T02:26:30.243Z,102266.03
2023-01-13T02:29:20.696Z,102258.91
2023-01-13T02:31:50.204Z,102265.25
2023-01-13T02:34:26.429Z,102261.31
2023-01-13T02:37:06.454Z,102258.00
2023-01-13T02:39:36.939Z,102252.75
2023-01-13T02:42:32.881Z,102249.84
2023-01-13T02:45:08.137Z,102252.06
2023-01-13T02:47:37.615Z,102259.03
2023-01-13T02:50:10.118Z,102255.56
2023-01-13T02:52:40.208Z,102253.56
2023-01-13T02:55:09.820Z,102252.69
2023-01-13T02:57:38.233Z,102245.44
2023-01-13T03:00:07.837Z,102243.16
2023-01-13T03:02:35.772Z,102234.69
2023-01-13T03:05:02.891Z,102240.56
2023-01-13T03:07:44.875Z,102248.28
2023-01-13T03:10:20.025Z,102252.63
2023-01-13T03:13:06.925Z,102236.25
2023-01-13T03:15:40.889Z,102241.34
2023-01-13T03:18:14.431Z,102248.13
2023-01-13T03:20:50.067Z,102249.91
2023-01-13T03:23:25.686Z,102244.88
2023-01-13T03:26:08.856Z,102247.44
2023-01-13T03:29:02.079Z,102255.25
2023-01-13T03:31:32.430Z,102253.41
2023-01-13T03:34:02.448Z,102252.28
2023-01-13T03:36:31.878Z,102251.81
2023-01-13T03:39:06.675Z,102264.09
2023-01-13T03:41:38.543Z,102263.94
2023-01-13T03:44:24.027Z,102266.88
2023-01-13T03:46:51.147Z,102258.94
2023-01-13T03:49:20.900Z,102263.44
2023-01-13T03:51:53.852Z,102248.63
2023-01-13T03:54:22.979Z,102262.38
2023-01-13T03:56:54.842Z,102266.81
2023-01-13T03:59:24.210Z,102276.19
2023-01-13T04:02:12.465Z,102288.91
2023-01-13T04:04:39.524Z,102286.28
2023-01-13T04:07:16.157Z,102292.72
2023-01-13T04:09:50.044Z,102302.03
2023-01-13T04:12:49.627Z,102302.38
2023-01-13T04:15:17.566Z,102300.53
2023-01-13T04:17:44.969Z,102316.28
2023-01-13T04:20:12.321Z,102310.72
2023-01-13T04:22:39.356Z,102313.75
2023-01-13T04:25:06.755Z,102315.63
2023-01-13T04:27:33.820Z,102312.06
2023-01-13T04:30:00.904Z,102310.66
2023-01-13T04:32:27.943Z,102314.06
2023-01-13T04:34:55.158Z,102310.56
2023-01-13T04:37:22.218Z,102295.94
2023-01-13T04:39:49.176Z,102292.63
2023-01-13T04:42:16.118Z,102289.97
2023-01-13T04:44:45.273Z,102281.69
2023-01-13T04:47:12.279Z,102286.84
2023-01-13T04:49:40.040Z,102286.00
2023-01-13T04:52:09.147Z,102293.06
2023-01-13T04:54:36.173Z,102294.84
2023-01-13T04:57:03.177Z,102309.56
2023-01-13T04:59:33.293Z,102316.09
2023-01-13T05:02:01.849Z,102307.69
2023-01-13T05:04:30.987Z,102303.09
2023-01-13T05:06:58.987Z,102293.88
2023-01-13T05:09:25.934Z,102300.09
2023-01-13T05:12:12.131Z,102289.84
2023-01-13T05:14:57.849Z,102302.78
2023-01-13T05:17:25.716Z,102309.28
2023-01-13T05:19:52.749Z,102299.28
2023-01-13T05:22:38.720Z,102307.72
2023-01-13T05:25:24.750Z,102301.63
2023-01-13T05:27:59.720Z,102300.09
2023-01-13T05:30:28.246Z,102296.34
2023-01-13T05:32:55.395Z,102293.13
2023-01-13T05:35:22.592Z,102290.47
2023-01-13T05:37:49.649Z,102293.38
2023-01-13T05:40:36.993Z,102303.88
2023-01-13T05:43:24.779Z,102309.81
2023-01-13T05:45:57.836Z,102315.16
2023-01-13T05:48:29.585Z,102314.06
2023-01-13T05:50:57.907Z,102318.22
2023-01-13T05:53:25.347Z,102312.81
2023-01-13T05:55:52.507Z,102330.25
2023-01-13T05:58:20.480Z,102326.78
2023-01-13T06:01:04.086Z,102327.59
2023-01-13T06:03:31.665Z,102336.75
2023-01-13T06:06:01.855Z,102337.78
2023-01-13T06:08:29.253Z,102347.13
2023-01-13T06:10:56.457Z,102349.84
2023-01-13T06:13:25.522Z,102346.94
2023-01-13T06:15:55.931Z,102350.44
2023-01-13T06:18:23.065Z,102352.97
2023-01-13T06:20:50.251Z,102343.03
2023-01-13T06:23:17.407Z,102337.00
2023-01-13T06:25:51.062Z,102335.63
2023-01-13T06:28:18.100Z,102337.50
2023-01-13T06:30:50.674Z,102333.03
2023-01-13T06:33:21.547Z,102354.06
2023-01-13T06:35:58.316Z,102362.38
2023-01-13T06:38:27.517Z,102374.22
2023-01-13T06:40:54.996Z,102378.63
2023-01-13T06:43:26.968Z,102378.03
2023-01-13T06:45:56.922Z,102384.94
2023-01-13T06:48:33.170Z,102385.53
2023-01-13T06:51:00.335Z,102385.75
2023-01-13T06:53:29.935Z,102377.38
2023-01-13T06:55:56.917Z,102369.72
2023-01-13T06:58:24.002Z,102383.59
2023-01-13T07:00:54.382Z,102379.09
2023-01-13T07:03:21.943Z,102393.25
2023-01-13T07:05:54.323Z,102385.06
2023-01-13T07:08:21.645Z,102382.31
2023-01-13T07:10:48.815Z,102376.69
2023-01-13T07:13:34.370Z,102379.03
2023-01-13T07:16:03.473Z,102378.53
2023-01-13T07:18:32.547Z,102388.13
2023-01-13T07:21:03.610Z,102403.78
2023-01-13T07:23:32.690Z,102410.41
2023-01-13T07:26:00.519Z,102404.19
2023-01-13T07:28:29.556Z,102403.13
2023-01-13T07:30:56.659Z,102397.56
2023-01-13T07:33:24.139Z,102393.97
2023-01-13T07:35:58.366Z,102397.41
2023-01-13T07:38:25.646Z,102392.44
2023-01-13T07:40:52.889Z,102391.22
2023-01-13T07:43:35.141Z,102387.03
2023-01-13T07:46:05.058Z,102399.78
2023-01-13T07:48:33.428Z,102404.03
2023-01-13T07:51:04.562Z,102398.25
2023-01-13T07:53:31.795Z,102402.56
2023-01-13T07:55:59.277Z,102399.16
2023-01-13T07:58:26.779Z,102400.66
2023-01-13T08:00:55.808Z,102417.28
2023-01-13T08:03:23.226Z,102425.59
2023-01-13T08:05:51.442Z,102424.97
2023-01-13T08:08:21.072Z,102418.47
2023-01-13T08:10:48.111Z,102438.31
2023-01-13T08:13:22.721Z,102441.66
2023-01-13T08:15:52.505Z,102436.53
2023-01-13T08:18:22.450Z,102441.81
2023-01-13T08:20:53.073Z,102445.97
2023-01-13T08:23:20.910Z,102452.06
2023-01-13T08:25:48.216Z,102453.84
2023-01-13T08:28:16.081Z,102438.19
2023-01-13T08:30:43.830Z,102437.97
2023-01-13T08:33:12.322Z,102433.28
2023-01-13T08:35:41.939Z,102435.19
2023-01-13T08:38:09.534Z,102426.66
2023-01-13T08:40:37.105Z,102442.03
2023-01-13T08:43:09.332Z,102437.44
2023-01-13T08:45:36.517Z,102441.81
2023-01-13T08:48:04.181Z,102441.06
2023-01-13T08:50:31.231Z,102443.53
2023-01-13T08:52:58.381Z,102445.25
2023-01-13T08:55:28.347Z,102457.34
2023-01-13T08:58:14.259Z,102472.44
2023-01-13T09:00:42.516Z,102466.56
2023-01-13T09:03:09.677Z,102468.56
2023-01-13T09:05:37.153Z,102480.63
2023-01-13T09:08:04.183Z,102484.41
2023-01-13T09:10:31.199Z,102491.63
2023-01-13T09:13:15.891Z,102500.53
2023-01-13T09:15:45.657Z,102508.88
2023-01-13T09:18:13.280Z,102507.88
2023-01-13T09:20:40.819Z,102510.94
2023-01-13T09:23:10.519Z,102507.53
2023-01-13T09:25:39.359Z,102495.19
2023-01-13T09:28:09.185Z,102500.38
2023-01-13T09:30:37.478Z,102501.41
2023-01-13T09:33:24.441Z,102499.00
2023-01-13T09:35:51.690Z,102494.03
2023-01-13T09:38:20.716Z,102488.06
2023-01-13T09:40:48.319Z,102479.31
2023-01-13T09:43:52.053Z,102489.34
2023-01-13T09:46:46.272Z,102501.97
2023-01-13T09:49:24.486Z,102508.69
2023-01-13T09:52:06.895Z,102515.47
2023-01-13T09:54:43.251Z,102525.28
2023-01-13T09:57:11.639Z,102505.88
2023-01-13T09:59:39.069Z,102510.41
2023-01-13T10:02:12.340Z,102497.06
2023-01-13T10:04:39.561Z,102489.41
2023-01-13T10:07:13.277Z,102479.16
2023-01-13T10:09:52.098Z,102502.31
2023-01-13T10:12:42.986Z,102510.69
2023-01-13T10:15:20.127Z,102515.97
2023-01-13T10:17:50.548Z,102505.41
2023-01-13T10:20:18.017Z,102512.88
2023-01-13T10:22:47.260Z,102505.00
2023-01-13T10:25:20.615Z,102501.13
2023-01-13T10:27:55.779Z,102494.19
2023-01-13T10:30:35.695Z,102483.16
2023-01-13T10:33:14.669Z,102484.44
2023-01-13T10:35:47.951Z,102484.56
2023-01-13T10:38:25.283Z,102479.44
2023-01-13T10:40:55.075Z,102474.66
2023-01-13T10:43:22.347Z,102473.38
2023-01-13T10:46:01.956Z,102463.63
2023-01-13T10:48:34.668Z,102462.53
2023-01-13T10:51:22.505Z,102446.88
2023-01-13T10:53:57.291Z,102443.00
2023-01-13T10:56:29.476Z,102442.75
2023-01-13T10:59:15.594Z,102437.84
2023-01-13T11:01:55.561Z,102439.31
2023-01-13T11:04:29.569Z,102421.53
2023-01-13T11:06:57.909Z,102432.50
2023-01-13T11:09:39.561Z,102431.00
2023-01-13T11:12:26.630Z,102432.03
2023-01-13T11:14:56.161Z,102434.72
2023-01-13T11:17:43.846Z,102434.09
2023-01-13T11:20:49.587Z,102426.31
2023-01-13T11:23:23.188Z,102419.41
2023-01-13T11:25:56.223Z,102408.84
2023-01-13T11:28:44.159Z,102410.50
2023-01-13T11:31:18.583Z,102408.81
2023-01-13T11:33:50.443Z,102408.72
2023-01-13T11:36:24.341Z,102409.63
2023-01-13T11:38:54.233Z,102403.41
2023-01-13T11:41:27.429Z,102417.56
2023-01-13T11:44:00.716Z,102421.03
2023-01-13T11:46:29.259Z,102429.19
2023-01-13T11:48:57.386Z,102431.72
2023-01-13T11:52:00.188Z,102419.44
2023-01-13T11:54:28.396Z,102422.09
2023-01-13T11:56:57.750Z,102434.44
2023-01-13T11:59:40.077Z,102428.28
2023-01-13T12:02:17.843Z,102420.19
2023-01-13T12:05:03.709Z,102407.75
2023-01-13T12:07:40.835Z,102405.88
2023-01-13T12:10:34.211Z,102404.84
2023-01-13T12:13:20.722Z,102394.84
2023-01-13T12:15:50.907Z,102391.69
2023-01-13T12:18:22.036Z,102380.53
2023-01-13T12:21:07.653Z,102394.69
2023-01-13T12:23:45.666Z,102389.28
2023-01-13T12:26:18.643Z,102385.25
2023-01-13T12:29:15.774Z,102389.94
2023-01-13T12:31:44.477Z,102386.13
2023-01-13T12:34:23.873Z,102377.38
2023-01-13T12:37:18.041Z,102369.50
2023-01-13T12:40:05.250Z,102358.44
2023-01-13T12:42:54.275Z,102348.84
2023-01-13T12:45:29.919Z,102338.88
2023-01-13T12:47:59.442Z,102331.13
2023-01-13T12:50:27.647Z,102326.22
2023-01-13T12:53:15.144Z,102321.13
2023-01-13T12:55:42.731Z,102321.38
2023-01-13T12:58:18.354Z,102321.78
2023-01-13T13:00:54.167Z,102318.59
2023-01-13T13:03:26.807Z,102311.94
2023-01-13T13:06:15.346Z,102322.28
2023-01-13T13:08:57.683Z,102324.59
2023-01-13T13:11:53.852Z,102328.59
2023-01-13T13:14:42.415Z,102321.41
2023-01-13T13:17:28.209Z,102311.13
2023-01-13T13:20:07.496Z,102321.66
2023-01-13T13:22:47.884Z,102326.72
2023-01-13T13:25:22.867Z,102333.59
2023-01-13T13:28:08.045Z,102314.31
2023-01-13T13:30:41.321Z,102314.97
2023-01-13T13:33:39.159Z,102314.97
2023-01-13T13:36:42.020Z,102311.00
2023-01-13T13:39:46.634Z,102303.34
2023-01-13T13:42:35.154Z,102310.69
2023-01-13T13:45:39.194Z,102320.38
2023-01-13T13:48:30.529Z,102320.63
2023-01-13T13:53:55.402Z,102329.03
2023-01-13T13:56:37.663Z,102319.91
2023-01-13T13:59:28.099Z,102312.88
2023-01-13T14:05:14.691Z,102302.16
2023-01-13T14:08:00.308Z,102311.00
2023-01-13T14:10:35.372Z,102307.31
2023-01-13T14:13:32.139Z,102312.75
2023-01-13T14:18:56.677Z,102319.19
2023-01-13T14:21:37.187Z,102312.72
2023-01-13T14:24:25.660Z,102324.66
2023-01-13T14:27:32.189Z,102314.81
2023-01-13T14:30:11.483Z,102302.81
2023-01-13T14:32:50.653Z,102297.44
2023-01-13T14:35:21.550Z,102312.34
2023-01-13T14:37:57.920Z,102329.72
2023-01-13T14:40:54.352Z,102339.75
2023-01-13T14:43:40.056Z,102352.25
2023-01-13T14:46:42.040Z,102363.78
2023-01-13T14:49:21.953Z,102362.00
2023-01-13T14:52:03.800Z,102368.22
2023-01-13T14:54:50.502Z,102372.63
2023-01-13T14:57:28.765Z,102378.66
2023-01-13T15:00:05.383Z,102385.94
2023-01-13T15:02:43.084Z,102376.19
2023-01-13T15:05:25.571Z,102376.97
2023-01-13T15:11:02.164Z,102379.69
2023-01-13T15:16:35.005Z,102367.19
2023-01-13T15:19:07.404Z,102367.25
2023-01-13T15:21:44.946Z,102371.66
2023-01-13T15:24:21.245Z,102381.34
2023-01-13T15:26:48.373Z,102394.53
2023-01-13T15:29:20.980Z,102400.66
2023-01-13T15:31:48.047Z,102395.22
2023-01-13T15:34:17.473Z,102387.09
2023-01-13T15:36:52.151Z,102391.53
2023-01-13T15:39:21.798Z,102381.53
2023-01-13T15:42:09.926Z,102380.50
2023-01-13T15:44:57.426Z,102383.91
2023-01-13T15:47:25.597Z,102385.31
2023-01-13T15:49:53.154Z,102385.38
2023-01-13T15:52:25.497Z,102378.13
2023-01-13T15:54:53.414Z,102376.75
2023-01-13T15:57:23.660Z,102378.31
2023-01-13T15:59:52.172Z,102383.44
2023-01-13T16:02:23.813Z,102377.97
2023-01-13T16:04:54.124Z,102380.28
2023-01-13T16:07:23.033Z,102393.84
2023-01-13T16:09:53.175Z,102410.25
2023-01-13T16:12:21.878Z,102409.41
2023-01-13T16:14:49.248Z,102408.19
2023-01-13T16:17:18.149Z,102409.84
2023-01-13T16:19:45.909Z,102411.94
2023-01-13T16:22:14.487Z,102412.38
2023-01-13T16:24:42.322Z,102414.84
2023-01-13T16:27:23.249Z,102420.34
2023-01-13T16:29:51.921Z,102425.75
2023-01-13T16:32:21.547Z,102418.84
2023-01-13T16:34:49.136Z,102419.69
2023-01-13T16:37:25.593Z,102420.25
2023-01-13T16:39:54.580Z,102436.69
2023-01-13T16:42:22.146Z,102438.44
2023-01-13T16:44:50.577Z,102435.03
2023-01-13T16:47:18.978Z,102443.34
2023-01-13T16:49:47.171Z,102445.81
2023-01-13T16:52:15.219Z,102448.50
2023-01-13T16:54:43.257Z,102451.03
2023-01-13T16:57:14.574Z,102454.72
2023-01-13T16:59:42.962Z,102449.59
2023-01-13T17:02:15.468Z,102450.44
2023-01-13T17:04:45.142Z,102446.91
2023-01-13T17:07:15.922Z,102448.63
2023-01-13T17:09:45.869Z,102459.84
2023-01-13T17:12:14.191Z,102471.09
2023-01-13T17:14:43.566Z,102464.13
2023-01-13T17:17:20.319Z,102466.41
2023-01-13T17:19:47.583Z,102460.84
2023-01-13T17:22:15.174Z,102482.81
2023-01-13T17:24:44.366Z,102488.09
2023-01-13T17:27:12.187Z,102479.09
2023-01-13T17:29:40.207Z,102483.50
2023-01-13T17:32:07.455Z,102492.94
2023-01-13T17:34:35.438Z,102496.38
2023-01-13T17:37:02.993Z,102500.63
2023-01-13T17:39:31.431Z,102506.75
2023-01-13T17:41:59.434Z,102505.88
2023-01-13T17:44:27.463Z,102505.81
2023-01-13T17:46:55.966Z,102511.81
2023-01-13T17:49:23.709Z,102510.81
2023-01-13T17:51:51.959Z,102512.56
2023-01-13T17:54:19.412Z,102517.53
2023-01-13T17:56:47.979Z,102521.00
2023-01-13T17:59:17.969Z,102520.69
2023-01-13T18:01:45.877Z,102521.44
2023-01-13T18:04:18.271Z,102522.34
2023-01-13T18:06:46.043Z,102538.53
2023-01-13T18:09:13.354Z,102553.22
2023-01-13T18:11:41.419Z,102544.34
2023-01-13T18:14:10.233Z,102551.41
2023-01-13T18:16:38.158Z,102541.66
2023-01-13T18:19:25.656Z,102543.91
2023-01-13T18:22:12.304Z,102542.97
2023-01-13T18:24:58.098Z,102546.63
2023-01-13T18:27:31.751Z,102553.38
2023-01-13T18:30:00.303Z,102561.91
2023-01-13T18:32:33.041Z,102562.78
2023-01-13T18:35:06.908Z,102572.28
2023-01-13T18:37:36.301Z,102579.19
2023-01-13T18:40:04.298Z,102586.81
2023-01-13T18:42:50.327Z,102596.44
2023-01-13T18:45:19.485Z,102586.53
2023-01-13T18:47:47.123Z,102592.44
2023-01-13T18:50:15.292Z,102589.66
2023-01-13T18:52:47.967Z,102583.94
2023-01-13T18:55:15.598Z,102586.75
2023-01-13T18:57:43.190Z,102589.22
2023-01-13T19:00:15.368Z,102589.16
2023-01-13T19:02:44.421Z,102585.50
2023-01-13T19:05:13.853Z,102600.25
2023-01-13T19:07:43.497Z,102601.88
2023-01-13T19:13:07.946Z,102602.50
2023-01-13T19:15:36.669Z,102603.78
2023-01-13T19:18:06.661Z,102604.56
2023-01-13T19:20:37.161Z,102595.88
2023-01-13T19:23:07.175Z,102597.25
2023-01-13T19:25:37.403Z,102599.72
2023-01-13T19:28:04.875Z,102602.41
2023-01-13T19:30:36.211Z,102605.59
2023-01-13T19:33:10.106Z,102607.34
2023-01-13T19:35:37.988Z,102608.22
2023-01-13T19:38:05.239Z,102613.16
2023-01-13T19:40:36.891Z,102615.66
2023-01-13T19:43:23.604Z,102622.56
2023-01-13T19:45:51.268Z,102617.03
2023-01-13T19:48:18.240Z,102617.88
2023-01-13T19:50:45.494Z,102614.31
2023-01-13T19:53:19.602Z,102624.47
2023-01-13T19:56:03.745Z,102620.00
2023-01-13T19:58:39.288Z,102618.84
2023-01-13T20:01:16.431Z,102627.66
2023-01-13T20:03:46.406Z,102631.69
2023-01-13T20:06:14.473Z,102622.75
2023-01-13T20:08:48.557Z,102633.16
2023-01-13T20:11:21.648Z,102639.97
2023-01-13T20:13:53.444Z,102637.31
2023-01-13T20:16:23.491Z,102635.41
2023-01-13T20:18:52.167Z,102637.66
2023-01-13T20:21:21.668Z,102632.22
2023-01-13T20:23:57.103Z,102630.50
2023-01-13T20:26:28.473Z,102620.59
2023-01-13T20:28:58.544Z,102625.94
2023-01-13T20:31:28.297Z,102625.81
2023-01-13T20:33:55.491Z,102620.38
2023-01-13T20:36:34.194Z,102618.50
2023-01-13T20:39:02.260Z,102627.16
2023-01-13T20:41:50.715Z,102617.34
2023-01-13T20:44:21.625Z,102605.81
2023-01-13T20:46:48.867Z,102594.28
2023-01-13T20:49:16.557Z,102586.84
2023-01-13T20:51:43.797Z,102592.88
2023-01-13T20:54:11.205Z,102599.88
2023-01-13T20:56:41.356Z,102597.16
2023-01-13T20:59:08.689Z,102609.19
2023-01-13T21:01:35.928Z,102612.63
2023-01-13T21:04:07.221Z,102603.88
2023-01-13T21:06:37.526Z,102601.16
2023-01-13T21:09:08.373Z,102599.22
2023-01-13T21:11:53.961Z,102602.59
2023-01-13T21:14:46.018Z,102603.75
2023-01-13T21:17:33.221Z,102615.22
2023-01-13T21:20:00.359Z,102620.22
2023-01-13T21:22:30.180Z,102621.69
2023-01-13T21:24:58.716Z,102622.59
2023-01-13T21:27:29.269Z,102627.41
2023-01-13T21:30:02.654Z,102630.84
2023-01-13T21:32:32.884Z,102640.03
2023-01-13T21:35:03.003Z,102638.25
2023-01-13T21:37:33.080Z,102635.44
2023-01-13T21:40:03.382Z,102643.31
2023-01-13T21:42:52.040Z,102646.75
2023-01-13T21:46:09.314Z,102644.81
2023-01-13T21:48:37.420Z,102656.00
2023-01-13T21:51:07.523Z,102655.81
2023-01-13T21:53:47.562Z,102648.88
2023-01-13T21:56:17.831Z,102651.25
2023-01-13T21:58:47.654Z,102645.00
2023-01-13T22:01:17.905Z,102644.00
2023-01-13T22:04:07.868Z,102646.22
2023-01-13T22:06:35.264Z,102646.75
2023-01-13T22:09:07.771Z,102656.47
2023-01-13T22:11:37.641Z,102652.03
2023-01-13T22:14:11.240Z,102654.75
2023-01-13T22:16:41.809Z,102653.41
2023-01-13T22:19:19.064Z,102656.22
2023-01-13T22:21:54.668Z,102656.66
2023-01-13T22:24:24.098Z,102659.66
2023-01-13T22:26:53.947Z,102663.81
2023-01-13T22:29:21.461Z,102668.22
2023-01-13T22:31:57.769Z,102669.84
2023-01-13T22:34:25.320Z,102663.59
2023-01-13T22:36:54.991Z,102665.13
2023-01-13T22:39:25.080Z,102669.31
2023-01-13T22:41:52.256Z,102671.91
2023-01-13T22:44:19.649Z,102674.31
2023-01-13T22:46:47.094Z,102672.34
2023-01-13T22:49:16.616Z,102679.13
2023-01-13T22:51:44.218Z,102671.75
2023-01-13T22:54:12.294Z,102678.91
2023-01-13T22:56:41.735Z,102680.25
2023-01-13T22:59:11.407Z,102685.19
2023-01-13T23:01:38.946Z,102678.38
2023-01-13T23:04:09.113Z,102681.81
2023-01-13T23:06:36.224Z,102680.75
2023-01-13T23:09:06.079Z,102685.81
2023-01-13T23:11:40.278Z,102684.03
2023-01-13T23:14:08.177Z,102680.44
2023-01-13T23:16:40.564Z,102677.75
2023-01-13T23:19:10.548Z,102687.59
2023-01-13T23:21:40.660Z,102678.88
2023-01-13T23:24:10.281Z,102679.31
2023-01-13T23:26:37.763Z,102690.38
2023-01-13T23:29:08.744Z,102696.63
2023-01-13T23:31:35.760Z,102697.13
2023-01-13T23:34:02.960Z,102696.50
2023-01-13T23:36:37.519Z,102696.63
2023-01-13T23:39:13.238Z,102693.47
2023-01-13T23:41:48.068Z,102701.03
2023-01-13T23:44:17.863Z,102699.16
2023-01-13T23:46:45.536Z,102689.44
2023-01-13T23:49:21.344Z,102692.84
2023-01-13T23:51:53.361Z,102694.38
2023-01-13T23:54:20.394Z,102690.88
2023-01-13T23:56:49.647Z,102685.59
2023-01-13T23:59:19.219Z,102684.56
